createdAt,value
2019-03-29T00:01:54.570Z,6.69
2019-03-29T00:04:25.125Z,6.71
2019-03-29T00:06:56.144Z,6.71
2019-03-29T00:09:26.712Z,6.71
2019-03-29T00:11:57.126Z,6.73
2019-03-29T00:14:27.751Z,6.72
2019-03-29T00:16:58.683Z,6.73
2019-03-29T00:19:29.355Z,6.73
2019-03-29T00:22:00.048Z,6.76
2019-03-29T00:24:31.147Z,6.71
2019-03-29T00:27:01.540Z,6.71
2019-03-29T00:29:32.270Z,6.69
2019-03-29T00:32:02.510Z,6.70
2019-03-29T00:34:33.475Z,6.68
2019-03-29T00:37:03.690Z,6.68
2019-03-29T00:39:34.498Z,6.65
2019-03-29T00:42:04.823Z,6.65
2019-03-29T00:44:35.457Z,6.65
2019-03-29T00:47:06.094Z,6.59
2019-03-29T00:49:36.572Z,6.63
2019-03-29T00:52:07.225Z,6.67
2019-03-29T00:54:38.375Z,6.65
2019-03-29T00:57:08.742Z,6.61
2019-03-29T00:59:39.160Z,6.60
2019-03-29T01:02:09.660Z,6.60
2019-03-29T01:04:40.052Z,6.46
2019-03-29T01:07:10.484Z,6.46
2019-03-29T01:09:41.232Z,6.39
2019-03-29T01:12:12.091Z,6.39
2019-03-29T01:14:43.008Z,6.55
2019-03-29T01:17:14.396Z,6.55
2019-03-29T01:19:45.218Z,6.53
2019-03-29T01:22:15.491Z,6.53
2019-03-29T01:24:46.960Z,6.52
2019-03-29T01:27:17.262Z,6.55
2019-03-29T01:29:47.624Z,6.53
2019-03-29T01:32:18.232Z,6.53
2019-03-29T01:34:48.786Z,6.54
2019-03-29T01:37:19.947Z,6.50
2019-03-29T01:39:50.566Z,6.53
2019-03-29T01:42:21.016Z,6.57
2019-03-29T01:44:51.712Z,6.57
2019-03-29T01:47:22.170Z,6.55
2019-03-29T01:49:52.935Z,6.55
2019-03-29T01:52:23.467Z,6.53
2019-03-29T01:54:53.872Z,6.53
2019-03-29T01:57:24.154Z,6.62
2019-03-29T01:59:54.405Z,6.62
2019-03-29T02:02:25.303Z,6.61
2019-03-29T02:04:56.214Z,6.56
2019-03-29T02:07:26.642Z,6.61
2019-03-29T02:09:57.139Z,6.61
2019-03-29T02:12:27.467Z,6.65
2019-03-29T02:14:57.824Z,6.65
2019-03-29T02:17:28.085Z,6.61
2019-03-29T02:19:58.510Z,6.61
2019-03-29T02:22:28.811Z,6.54
2019-03-29T02:24:59.511Z,6.53
2019-03-29T02:27:29.766Z,6.56
2019-03-29T02:30:00.173Z,6.63
2019-03-29T02:32:33.278Z,6.65
2019-03-29T02:35:03.494Z,6.65
2019-03-29T02:37:33.732Z,6.59
2019-03-29T02:40:04.097Z,6.55
2019-03-29T02:42:34.311Z,6.60
2019-03-29T02:45:05.118Z,6.58
2019-03-29T02:47:36.186Z,6.58
2019-03-29T02:50:08.583Z,6.58
2019-03-29T02:52:39.072Z,6.54
2019-03-29T02:55:10.177Z,6.54
2019-03-29T02:57:40.387Z,6.51
2019-03-29T03:00:10.686Z,6.52
2019-03-29T03:02:40.964Z,6.52
2019-03-29T03:05:11.534Z,6.55
2019-03-29T03:07:42.408Z,6.58
2019-03-29T03:10:14.086Z,6.50
2019-03-29T03:12:44.391Z,6.47
2019-03-29T03:15:15.322Z,6.50
2019-03-29T03:17:45.653Z,6.59
2019-03-29T03:20:17.967Z,6.53
2019-03-29T03:22:48.349Z,6.60
2019-03-29T03:25:18.740Z,6.58
2019-03-29T03:27:49.414Z,6.59
2019-03-29T03:30:20.021Z,6.48
2019-03-29T03:32:50.840Z,6.44
2019-03-29T03:35:21.259Z,6.44
2019-03-29T03:37:51.428Z,6.49
2019-03-29T03:40:22.306Z,6.54
2019-03-29T03:42:52.626Z,6.49
2019-03-29T03:45:23.225Z,6.46
2019-03-29T03:47:53.565Z,6.46
2019-03-29T03:50:38.004Z,6.52
2019-03-29T03:53:08.401Z,6.52
2019-03-29T03:55:39.166Z,6.49
2019-03-29T03:58:09.583Z,6.46
2019-03-29T04:00:59.231Z,6.46
2019-03-29T04:03:29.563Z,6.45
2019-03-29T04:05:59.942Z,6.45
2019-03-29T04:08:30.383Z,6.46
2019-03-29T04:11:01.069Z,6.41
2019-03-29T04:13:31.525Z,6.42
2019-03-29T04:16:01.939Z,6.47
2019-03-29T04:18:32.299Z,6.44
2019-03-29T04:21:02.844Z,6.43
2019-03-29T04:23:33.412Z,6.47
2019-03-29T04:26:03.844Z,6.52
2019-03-29T04:28:34.190Z,6.53
2019-03-29T04:31:04.499Z,6.51
2019-03-29T04:33:34.976Z,6.51
2019-03-29T04:36:05.726Z,6.56
2019-03-29T04:38:36.410Z,6.54
2019-03-29T04:41:07.020Z,6.54
2019-03-29T04:43:37.322Z,6.56
2019-03-29T04:46:07.842Z,6.56
2019-03-29T04:48:38.132Z,6.41
2019-03-29T04:51:08.751Z,6.46
2019-03-29T04:53:39.087Z,6.48
2019-03-29T04:56:09.816Z,6.46
2019-03-29T04:58:40.161Z,6.46
2019-03-29T05:01:10.670Z,6.42
2019-03-29T05:03:40.918Z,6.52
2019-03-29T05:06:11.370Z,6.52
2019-03-29T05:08:41.727Z,6.52
2019-03-29T05:11:12.611Z,6.50
2019-03-29T05:13:43.018Z,6.45
2019-03-29T05:16:13.425Z,6.54
2019-03-29T05:18:44.101Z,6.49
2019-03-29T05:21:14.985Z,6.54
2019-03-29T05:23:45.252Z,6.53
2019-03-29T05:26:15.711Z,6.59
2019-03-29T05:28:46.091Z,6.57
2019-03-29T05:31:16.562Z,6.57
2019-03-29T05:33:46.694Z,6.54
2019-03-29T05:36:17.294Z,6.54
2019-03-29T05:38:47.597Z,6.62
2019-03-29T05:41:18.006Z,6.62
2019-03-29T05:43:48.277Z,6.68
2019-03-29T05:46:18.677Z,6.65
2019-03-29T05:48:49.227Z,6.65
2019-03-29T05:51:20.463Z,6.81
2019-03-29T05:53:51.041Z,6.85
2019-03-29T05:56:21.925Z,6.85
2019-03-29T05:58:57.914Z,6.94
2019-03-29T06:01:28.114Z,6.96
2019-03-29T06:03:58.602Z,6.96
2019-03-29T06:06:29.375Z,6.99
2019-03-29T06:09:00.179Z,7.09
2019-03-29T06:11:30.437Z,7.19
2019-03-29T06:14:01.008Z,7.26
2019-03-29T06:16:38.898Z,7.26
2019-03-29T06:19:05.867Z,7.40
2019-03-29T06:21:36.167Z,7.40
2019-03-29T06:24:06.688Z,7.61
2019-03-29T06:26:37.682Z,7.67
2019-03-29T06:29:08.005Z,7.67
2019-03-29T06:31:38.324Z,7.69
2019-03-29T06:34:08.910Z,7.80
2019-03-29T06:36:39.117Z,7.98
2019-03-29T06:39:09.526Z,8.02
2019-03-29T06:41:40.188Z,8.10
2019-03-29T06:44:10.424Z,8.10
2019-03-29T06:46:40.840Z,8.22
2019-03-29T06:49:11.658Z,8.36
2019-03-29T06:51:42.461Z,8.36
2019-03-29T06:54:13.972Z,8.57
2019-03-29T06:56:44.433Z,8.57
2019-03-29T06:59:14.761Z,8.57
2019-03-29T07:01:46.491Z,8.68
2019-03-29T07:04:19.135Z,8.85
2019-03-29T07:06:50.197Z,8.89
2019-03-29T07:09:20.433Z,8.89
2019-03-29T07:11:51.145Z,8.91
2019-03-29T07:14:21.553Z,9.01
2019-03-29T07:16:52.375Z,9.18
2019-03-29T07:19:22.581Z,9.18
2019-03-29T07:21:53.826Z,9.25
2019-03-29T07:24:26.730Z,9.25
2019-03-29T07:26:57.718Z,9.41
2019-03-29T07:29:27.932Z,9.58
2019-03-29T07:31:58.782Z,9.58
2019-03-29T07:34:29.176Z,9.65
2019-03-29T07:36:59.523Z,9.78
2019-03-29T07:39:29.947Z,9.76
2019-03-29T07:42:00.525Z,9.90
2019-03-29T07:44:30.847Z,9.99
2019-03-29T07:47:01.090Z,9.99
2019-03-29T07:49:31.794Z,10.17
2019-03-29T07:52:04.232Z,10.21
2019-03-29T07:54:34.658Z,10.21
2019-03-29T07:57:04.989Z,10.46
2019-03-29T07:59:35.666Z,10.54
2019-03-29T08:02:08.139Z,10.55
2019-03-29T08:04:38.499Z,10.78
2019-03-29T08:07:08.753Z,10.78
2019-03-29T08:09:41.297Z,10.79
2019-03-29T08:12:13.119Z,10.95
2019-03-29T08:14:43.433Z,11.06
2019-03-29T08:17:17.207Z,11.06
2019-03-29T08:19:47.394Z,11.29
2019-03-29T08:22:18.155Z,11.21
2019-03-29T08:24:49.027Z,11.35
2019-03-29T08:27:20.085Z,11.30
2019-03-29T08:29:50.405Z,11.44
2019-03-29T08:32:21.024Z,11.53
2019-03-29T08:34:52.181Z,11.53
2019-03-29T08:37:22.597Z,11.58
2019-03-29T08:39:56.298Z,11.72
2019-03-29T08:42:25.487Z,11.85
2019-03-29T08:44:56.760Z,11.86
2019-03-29T08:47:27.170Z,11.86
2019-03-29T08:50:02.758Z,12.24
2019-03-29T08:52:38.657Z,12.24
2019-03-29T08:55:09.102Z,12.51
2019-03-29T08:57:39.958Z,12.38
2019-03-29T09:00:10.212Z,12.34
2019-03-29T09:02:40.618Z,12.54
2019-03-29T09:05:11.017Z,12.56
2019-03-29T09:07:44.890Z,12.44
2019-03-29T09:10:23.912Z,12.44
2019-03-29T09:12:55.398Z,12.66
2019-03-29T09:15:26.151Z,12.74
2019-03-29T09:17:59.863Z,12.67
2019-03-29T09:20:29.679Z,12.75
2019-03-29T09:23:00.368Z,12.82
2019-03-29T09:25:30.586Z,12.83
2019-03-29T09:28:01.261Z,12.79
2019-03-29T09:30:32.270Z,13.07
2019-03-29T09:33:02.682Z,13.15
2019-03-29T09:35:33.047Z,13.29
2019-03-29T09:38:03.603Z,13.30
2019-03-29T09:40:33.745Z,13.05
2019-03-29T09:43:08.198Z,13.05
2019-03-29T09:45:36.653Z,13.35
2019-03-29T09:48:06.914Z,13.35
2019-03-29T09:50:39.381Z,13.43
2019-03-29T09:53:09.429Z,13.45
2019-03-29T09:55:39.790Z,13.56
2019-03-29T09:58:10.025Z,13.56
2019-03-29T10:00:40.495Z,13.61
2019-03-29T10:03:11.050Z,13.65
2019-03-29T10:05:41.740Z,13.90
2019-03-29T10:08:12.533Z,13.90
2019-03-29T10:10:42.848Z,13.79
2019-03-29T10:13:13.289Z,13.80
2019-03-29T10:15:43.740Z,13.80
2019-03-29T10:18:14.484Z,13.99
2019-03-29T10:20:45.140Z,13.99
2019-03-29T10:23:19.053Z,14.00
2019-03-29T10:25:49.374Z,14.11
2019-03-29T10:28:20.233Z,14.29
2019-03-29T10:30:50.729Z,14.19
2019-03-29T10:33:21.234Z,14.19
2019-03-29T10:35:53.355Z,14.49
2019-03-29T10:38:27.261Z,14.50
2019-03-29T10:40:57.752Z,14.23
2019-03-29T10:43:29.058Z,14.37
2019-03-29T10:45:59.639Z,14.37
2019-03-29T10:48:29.949Z,14.58
2019-03-29T10:51:00.272Z,14.88
2019-03-29T10:53:31.148Z,14.94
2019-03-29T10:56:01.763Z,14.94
2019-03-29T10:58:32.082Z,15.01
2019-03-29T11:01:03.023Z,15.08
2019-03-29T11:03:33.975Z,14.98
2019-03-29T11:06:05.232Z,15.11
2019-03-29T11:08:35.556Z,15.11
2019-03-29T11:11:07.918Z,15.01
2019-03-29T11:13:40.960Z,15.01
2019-03-29T11:16:10.674Z,14.89
2019-03-29T11:18:41.111Z,15.06
2019-03-29T11:21:16.023Z,15.32
2019-03-29T11:23:46.790Z,15.49
2019-03-29T11:26:17.102Z,15.39
2019-03-29T11:28:47.303Z,15.29
2019-03-29T11:31:18.291Z,15.63
2019-03-29T11:33:48.961Z,15.81
2019-03-29T11:36:20.083Z,15.81
2019-03-29T11:38:50.293Z,15.81
2019-03-29T11:41:20.780Z,15.53
2019-03-29T11:43:51.416Z,15.58
2019-03-29T11:46:21.805Z,15.77
2019-03-29T11:48:51.930Z,15.64
2019-03-29T11:51:22.364Z,15.73
2019-03-29T11:53:54.378Z,15.83
2019-03-29T11:56:32.573Z,15.64
2019-03-29T11:59:03.316Z,15.76
2019-03-29T12:01:36.741Z,15.91
2019-03-29T12:04:07.593Z,15.91
2019-03-29T12:06:37.929Z,15.80
2019-03-29T12:09:08.479Z,15.80
2019-03-29T12:11:39.045Z,16.23
2019-03-29T12:14:09.141Z,16.23
2019-03-29T12:16:43.026Z,16.53
2019-03-29T12:20:03.328Z,16.53
2019-03-29T12:23:07.780Z,16.32
2019-03-29T12:25:41.075Z,16.32
2019-03-29T12:28:12.044Z,16.22
2019-03-29T12:30:43.195Z,16.79
2019-03-29T12:33:14.042Z,16.79
2019-03-29T12:35:44.742Z,16.98
2019-03-29T12:38:16.683Z,16.98
2019-03-29T12:40:47.008Z,17.14
2019-03-29T12:43:17.736Z,17.14
2019-03-29T12:45:48.028Z,17.02
2019-03-29T12:48:18.404Z,17.02
2019-03-29T12:50:49.469Z,16.94
2019-03-29T12:53:20.025Z,17.06
2019-03-29T12:55:51.202Z,17.23
2019-03-29T12:58:21.825Z,17.23
2019-03-29T13:00:52.219Z,17.25
2019-03-29T13:03:23.671Z,17.18
2019-03-29T13:05:54.512Z,17.01
2019-03-29T13:08:32.086Z,17.01
2019-03-29T13:11:03.022Z,16.96
2019-03-29T13:13:33.489Z,16.96
2019-03-29T13:16:03.774Z,17.44
2019-03-29T13:18:34.200Z,17.33
2019-03-29T13:21:04.780Z,17.36
2019-03-29T13:23:35.351Z,17.36
2019-03-29T13:26:05.707Z,17.40
2019-03-29T13:28:37.184Z,17.54
2019-03-29T13:31:08.137Z,17.54
2019-03-29T13:33:38.639Z,17.20
2019-03-29T13:36:09.781Z,17.34
2019-03-29T13:38:40.036Z,17.11
2019-03-29T13:41:13.032Z,17.11
2019-03-29T13:43:43.676Z,17.27
2019-03-29T13:46:14.376Z,17.36
2019-03-29T13:48:44.836Z,17.58
2019-03-29T13:51:15.593Z,17.43
2019-03-29T13:53:47.281Z,17.74
2019-03-29T13:56:19.732Z,17.74
2019-03-29T13:58:52.140Z,17.77
2019-03-29T14:01:26.905Z,17.46
2019-03-29T14:03:58.150Z,17.87
2019-03-29T14:06:30.927Z,17.82
2019-03-29T14:09:01.309Z,17.84
2019-03-29T14:11:31.721Z,17.83
2019-03-29T14:14:02.254Z,17.83
2019-03-29T14:16:32.738Z,17.94
2019-03-29T14:19:03.128Z,17.94
2019-03-29T14:21:35.342Z,18.00
2019-03-29T14:24:05.962Z,18.17
2019-03-29T14:26:36.506Z,18.17
2019-03-29T14:29:06.762Z,18.08
2019-03-29T14:31:38.219Z,18.13
2019-03-29T14:34:08.448Z,18.08
2019-03-29T14:36:38.733Z,18.23
2019-03-29T14:39:09.586Z,18.14
2019-03-29T14:41:39.907Z,18.16
2019-03-29T14:44:10.330Z,18.16
2019-03-29T14:46:41.084Z,18.14
2019-03-29T14:49:11.401Z,18.33
2019-03-29T14:51:41.996Z,17.90
2019-03-29T14:54:16.010Z,18.46
2019-03-29T14:56:46.571Z,18.46
2019-03-29T14:59:17.279Z,18.27
2019-03-29T15:01:47.455Z,18.36
2019-03-29T15:04:17.765Z,18.29
2019-03-29T15:06:48.415Z,18.05
2019-03-29T15:09:30.683Z,18.25
2019-03-29T15:12:07.074Z,18.25
2019-03-29T15:14:40.743Z,18.43
2019-03-29T15:17:11.269Z,18.60
2019-03-29T15:19:41.529Z,18.60
2019-03-29T15:22:12.143Z,18.63
2019-03-29T15:24:45.134Z,18.33
2019-03-29T15:27:16.304Z,18.40
2019-03-29T15:29:46.743Z,18.44
2019-03-29T15:32:20.181Z,18.48
2019-03-29T15:34:50.312Z,18.48
2019-03-29T15:37:20.640Z,18.74
2019-03-29T15:39:51.150Z,18.65
2019-03-29T15:42:21.295Z,18.73
2019-03-29T15:44:53.032Z,18.73
2019-03-29T15:47:24.711Z,18.53
2019-03-29T15:49:58.380Z,18.58
2019-03-29T15:52:29.771Z,18.65
2019-03-29T15:55:00.405Z,18.96
2019-03-29T15:57:31.201Z,18.78
2019-03-29T16:00:01.862Z,18.93
2019-03-29T16:02:32.223Z,18.68
2019-03-29T16:05:02.435Z,18.68
2019-03-29T16:07:34.975Z,18.92
2019-03-29T16:10:05.706Z,18.92
2019-03-29T16:12:36.413Z,19.01
2019-03-29T16:15:06.986Z,19.01
2019-03-29T16:17:39.093Z,19.10
2019-03-29T16:20:10.253Z,19.10
2019-03-29T16:22:40.675Z,19.41
2019-03-29T16:25:11.392Z,19.41
2019-03-29T16:27:44.474Z,19.73
2019-03-29T16:30:15.189Z,19.55
2019-03-29T16:32:45.705Z,19.71
2019-03-29T16:35:15.874Z,20.02
2019-03-29T16:37:56.664Z,20.04
2019-03-29T16:40:18.775Z,19.30
2019-03-29T16:42:50.976Z,19.62
2019-03-29T16:45:23.636Z,19.62
2019-03-29T16:47:56.011Z,19.51
2019-03-29T16:50:26.023Z,19.73
2019-03-29T16:52:56.639Z,19.44
2019-03-29T16:55:28.649Z,18.96
2019-03-29T16:57:59.231Z,18.50
2019-03-29T17:00:31.260Z,18.50
2019-03-29T17:03:03.581Z,18.05
2019-03-29T17:05:36.909Z,18.05
2019-03-29T17:08:07.076Z,17.74
2019-03-29T17:10:37.201Z,17.85
2019-03-29T17:13:07.600Z,17.54
2019-03-29T17:15:38.407Z,17.28
2019-03-29T17:18:08.688Z,17.28
2019-03-29T17:20:39.160Z,17.16
2019-03-29T17:23:09.754Z,17.16
2019-03-29T17:25:43.631Z,16.76
2019-03-29T17:28:19.355Z,16.75
2019-03-29T17:30:56.225Z,16.62
2019-03-29T17:33:26.634Z,16.69
2019-03-29T17:35:59.228Z,16.69
2019-03-29T17:38:29.927Z,16.49
2019-03-29T17:41:00.230Z,16.40
2019-03-29T17:43:32.271Z,16.21
2019-03-29T17:46:15.421Z,16.11
2019-03-29T17:48:34.517Z,16.06
2019-03-29T17:51:04.739Z,15.85
2019-03-29T17:53:35.324Z,15.85
2019-03-29T17:56:05.803Z,15.77
2019-03-29T17:58:35.942Z,15.55
2019-03-29T18:01:06.765Z,15.46
2019-03-29T18:03:37.550Z,15.46
2019-03-29T18:06:10.183Z,15.25
2019-03-29T18:08:40.743Z,15.25
2019-03-29T18:11:11.249Z,15.04
2019-03-29T18:13:41.382Z,15.04
2019-03-29T18:16:13.432Z,14.83
2019-03-29T18:18:45.941Z,14.83
2019-03-29T18:21:19.673Z,14.52
2019-03-29T18:23:50.422Z,14.52
2019-03-29T18:26:23.581Z,14.33
2019-03-29T18:28:54.128Z,14.20
2019-03-29T18:31:26.100Z,14.20
2019-03-29T18:33:56.462Z,14.02
2019-03-29T18:36:29.636Z,13.85
2019-03-29T18:38:59.849Z,13.79
2019-03-29T18:41:30.367Z,13.71
2019-03-29T18:44:01.366Z,13.71
2019-03-29T18:46:44.559Z,13.60
2019-03-29T18:49:06.267Z,13.60
2019-03-29T18:51:36.473Z,13.55
2019-03-29T18:54:08.884Z,13.41
2019-03-29T18:56:39.255Z,13.31
2019-03-29T18:59:10.863Z,13.31
2019-03-29T19:01:42.491Z,13.30
2019-03-29T19:04:13.884Z,13.22
2019-03-29T19:06:45.173Z,13.17
2019-03-29T19:09:15.596Z,13.07
2019-03-29T19:11:46.312Z,13.00
2019-03-29T19:14:16.652Z,12.96
2019-03-29T19:16:58.243Z,12.92
2019-03-29T19:19:19.371Z,12.92
2019-03-29T19:21:50.173Z,12.78
2019-03-29T19:24:21.691Z,12.69
2019-03-29T19:26:55.295Z,12.69
2019-03-29T19:29:28.114Z,12.69
2019-03-29T19:32:00.795Z,12.55
2019-03-29T19:34:31.230Z,12.58
2019-03-29T19:37:01.807Z,12.49
2019-03-29T19:39:32.561Z,12.39
2019-03-29T19:42:05.331Z,12.39
2019-03-29T19:44:36.132Z,12.28
2019-03-29T19:47:13.829Z,12.28
2019-03-29T19:49:40.459Z,12.16
2019-03-29T19:52:13.818Z,12.09
2019-03-29T19:54:48.109Z,12.09
2019-03-29T19:57:19.151Z,12.05
2019-03-29T19:59:52.685Z,11.90
2019-03-29T20:02:23.145Z,11.81
2019-03-29T20:04:55.491Z,11.78
2019-03-29T20:07:32.015Z,11.69
2019-03-29T20:12:40.649Z,11.94
2019-03-29T20:15:11.430Z,11.94
2019-03-29T20:17:45.039Z,11.87
2019-03-29T20:20:20.104Z,11.78
2019-03-29T20:22:50.723Z,11.78
2019-03-29T20:25:21.231Z,11.60
2019-03-29T20:27:51.644Z,11.53
2019-03-29T20:30:22.167Z,11.35
2019-03-29T20:32:52.515Z,11.27
2019-03-29T20:35:22.713Z,11.22
2019-03-29T20:37:53.211Z,11.22
2019-03-29T20:40:23.944Z,11.16
2019-03-29T20:42:54.471Z,11.11
2019-03-29T20:45:26.663Z,11.06
2019-03-29T20:47:57.393Z,10.92
2019-03-29T20:50:33.426Z,10.92
2019-03-29T20:53:03.809Z,10.79
2019-03-29T20:55:34.023Z,10.79
2019-03-29T20:58:05.266Z,10.75
2019-03-29T21:00:35.693Z,10.75
2019-03-29T21:03:06.057Z,10.62
2019-03-29T21:05:36.365Z,10.50
2019-03-29T21:08:10.138Z,10.40
2019-03-29T21:10:54.568Z,10.40
2019-03-29T21:13:13.514Z,10.41
2019-03-29T21:15:43.909Z,10.41
2019-03-29T21:18:17.351Z,10.34
2019-03-29T21:20:48.699Z,10.34
2019-03-29T21:23:19.061Z,10.32
2019-03-29T21:25:49.550Z,10.28
2019-03-29T21:28:20.143Z,10.29
2019-03-29T21:30:50.447Z,10.22
2019-03-29T21:33:20.733Z,10.21
2019-03-29T21:35:51.592Z,10.21
2019-03-29T21:38:25.568Z,10.19
2019-03-29T21:40:57.914Z,10.13
2019-03-29T21:43:29.184Z,10.13
2019-03-29T21:45:59.666Z,10.07
2019-03-29T21:48:32.581Z,10.03
2019-03-29T21:51:03.359Z,9.83
2019-03-29T21:53:34.094Z,9.78
2019-03-29T21:56:08.191Z,9.82
2019-03-29T21:58:38.462Z,9.78
2019-03-29T22:01:09.306Z,9.79
2019-03-29T22:03:39.819Z,9.79
2019-03-29T22:06:11.493Z,9.72
2019-03-29T22:08:42.154Z,9.78
2019-03-29T22:11:13.159Z,9.78
2019-03-29T22:13:47.260Z,9.80
2019-03-29T22:16:23.723Z,9.79
2019-03-29T22:18:54.607Z,9.73
2019-03-29T22:21:24.832Z,9.71
2019-03-29T22:23:55.823Z,9.71
2019-03-29T22:26:26.049Z,9.67
2019-03-29T22:28:56.425Z,9.67
2019-03-29T22:31:27.459Z,9.64
2019-03-29T22:33:58.102Z,9.64
2019-03-29T22:36:28.344Z,9.58
2019-03-29T22:38:58.744Z,9.60
2019-03-29T22:41:29.315Z,9.59
2019-03-29T22:43:59.793Z,9.54
2019-03-29T22:46:31.130Z,9.45
2019-03-29T22:49:01.718Z,9.45
2019-03-29T22:51:32.549Z,9.42
2019-03-29T22:54:03.173Z,9.39
2019-03-29T22:56:33.977Z,9.33
2019-03-29T22:59:04.300Z,9.32
2019-03-29T23:01:35.922Z,9.32
2019-03-29T23:04:06.167Z,9.31
2019-03-29T23:06:36.892Z,9.27
2019-03-29T23:09:11.602Z,9.23
2019-03-29T23:11:40.655Z,9.23
2019-03-29T23:14:11.185Z,9.23
2019-03-29T23:16:41.550Z,9.17
2019-03-29T23:19:11.806Z,9.15
2019-03-29T23:21:42.562Z,9.15
2019-03-29T23:24:13.243Z,9.09
2019-03-29T23:26:43.929Z,9.09
2019-03-29T23:29:14.675Z,9.11
2019-03-29T23:31:45.407Z,9.02
2019-03-29T23:34:16.148Z,9.02
2019-03-29T23:36:47.189Z,8.98
2019-03-29T23:39:18.122Z,9.00
2019-03-29T23:41:48.497Z,9.00
2019-03-29T23:44:18.859Z,8.94
2019-03-29T23:46:49.259Z,8.94
2019-03-29T23:49:21.200Z,8.96
2019-03-29T23:51:51.818Z,8.96
2019-03-29T23:54:22.002Z,8.95
2019-03-29T23:56:52.415Z,8.92
2019-03-29T23:59:22.677Z,8.92
